Bertrix, Belgium
Current Conditions -  °F | °C
As of 8:25 PM on Friday 31 Oct 2014 (Local Time) from EBFS Reporting Station
Scattered Clouds Scattered Clouds  
Wind Chill: 15°   Ceiling: Unl
Heat Index: 15°   Visibility: 6mi
Dew Point: 10°   Wind: 5mph
Humidity: 72%   Direction: 170°S
Pressure: 30.18"   Gusts: NA
Location:  49.86°N, 5.26°E
Report Text: EBFS 311925Z 17004KT 9999 SCT250 15/10 Q1022 BLU
Loading
Personal Weather Stations






























Interactive Weather Map
Tropical Storm Tracking
New forecast layout! Learn more

10-Day Weather Forecast

Advertisements
Track Severe Weather on mobile